Deep Creek, Idaho
Current Conditions -  °F | °C
As of 10:53 AM on Sunday 21 Dec 2014 (Local Time) from KJER Reporting Station
Light Rain Light Rain  
Wind Chill: 38°   Ceiling: 2100
Heat Index: 46°   Visibility: 10mi
Dew Point: 43°   Wind: 22mph
Humidity: 89%   Direction: 240°WSW
Pressure: 29.89"   Gusts: 30mph
Location:  42.6472°N, 114.901°W
Report Text: KJER 211753Z AUTO 24019G26KT 10SM -RA FEW016 BKN021 OVC026 08/06 A2989 RMK AO2 PK WND 24026/1753 SLP123 P0003 60011 T00780061 10078 20050 53015
Loading
Personal Weather Stations






























Interactive Weather Map New forecast layout! Learn more

10-Day Weather Forecast

Advertisements
Track Severe Weather on mobile